Edmundston, Canada
Current Conditions -  °F | °C
As of 7:53 PM on Thursday 18 Dec 2014 (Local Time) from KFVE Reporting Station
Light Snow Light Snow  
Wind Chill: -14°   Ceiling: 4700
Heat Index: -5°   Visibility: 5mi
Dew Point: -7°   Wind: 24mph
Humidity: 88%   Direction: 350°N
Pressure: 29.61"   Gusts: 38mph
Location:  47.37°N, 68.33°W
Report Text: KFVE 182353Z AUTO 35021G33KT 5SM -SN BR FEW013 OVC047 M05/M07 A2961 RMK AO2 PK WND 35033/2346 UPB06E18SNE06B18 SLP040 P0000 60000 T10501067 11039 21050 51014
Loading
Personal Weather Stations






























Interactive Weather Map New forecast layout! Learn more

10-Day Weather Forecast

Advertisements
Track Severe Weather on mobile